Time;durP1;ratioP1;P1;durP2;ratioP2;P2;SDS_P1;SDS_P2;PMS_P1;PMS_P2;Temp;Humidity;BMP_temperature;BMP_pressure;BME280_temperature;BME280_humidity;BME280_pressure;Samples;Min_cycle;Max_cycle;Signal;HPM_P1;HPM_P2
2023/01/24 00:01:58;;;;;;;30.73;20.30;;;;;;;1.54;99.31;103728.97;5090517;28;20024;-49
2023/01/24 00:04:24;;;;;;;28.98;19.77;;;;;;;1.54;98.73;103730.81;5090555;28;20028;-52
2023/01/24 00:06:49;;;;;;;28.95;20.73;;;;;;;1.52;98.04;103714.63;5085223;28;20059;-48
2023/01/24 00:09:14;;;;;;;28.90;20.58;;;;;;;1.53;98.34;103723.66;5090660;28;20387;-48
2023/01/24 00:11:40;;;;;;;30.25;20.15;;;;;;;1.61;98.20;103730.97;5091253;28;20349;-46
2023/01/24 00:14:05;;;;;;;30.67;20.52;;;;;;;1.55;98.01;103730.66;5091549;28;20028;-46
2023/01/24 00:16:30;;;;;;;29.80;20.83;;;;;;;1.54;99.28;103728.97;5091446;28;20035;-47
2023/01/24 00:18:55;;;;;;;31.17;20.63;;;;;;;1.53;99.15;103726.38;5091812;28;20563;-44
2023/01/24 00:21:23;;;;;;;30.88;19.38;;;;;;;1.51;98.72;103734.75;5091716;28;20035;-46
2023/01/24 00:23:53;;;;;;;29.77;20.70;;;;;;;1.51;98.65;103732.03;5091230;28;20023;-48
2023/01/24 00:26:21;;;;;;;28.48;20.08;;;;;;;1.50;98.78;103722.13;5091373;28;20085;-48
2023/01/24 00:28:47;;;;;;;29.67;20.08;;;;;;;1.50;98.97;103716.69;5091483;28;20032;-49
2023/01/24 00:31:12;;;;;;;29.23;20.20;;;;;;;1.52;99.14;103721.94;5091458;28;20028;-47
2023/01/24 00:33:38;;;;;;;30.92;20.70;;;;;;;1.51;99.67;103709.38;5090271;28;20122;-49
2023/01/24 00:36:04;;;;;;;30.70;21.63;;;;;;;1.49;99.31;103712.25;5091482;28;20111;-49
2023/01/24 00:38:30;;;;;;;30.40;21.08;;;;;;;1.51;99.51;103712.09;5090723;28;20118;-53
2023/01/24 00:40:56;;;;;;;30.17;20.77;;;;;;;1.50;99.25;103711.22;5091456;28;20056;-46
2023/01/24 00:43:22;;;;;;;31.50;20.80;;;;;;;1.50;99.92;103707.66;5091507;28;20089;-50
2023/01/24 00:45:47;;;;;;;30.60;21.50;;;;;;;1.48;99.00;103709.69;5091098;28;20441;-47
2023/01/24 00:48:13;;;;;;;28.35;20.55;;;;;;;1.46;98.85;103701.69;5091277;28;20086;-48
2023/01/24 00:50:38;;;;;;;30.35;20.27;;;;;;;1.41;98.61;103698.63;5090040;28;20221;-48
2023/01/24 00:53:04;;;;;;;32.10;20.48;;;;;;;1.40;98.55;103702.38;5090993;28;20111;-46
2023/01/24 00:55:29;;;;;;;28.20;18.63;;;;;;;1.40;98.81;103705.09;5091442;28;20491;-46
2023/01/24 00:57:55;;;;;;;29.23;19.20;;;;;;;1.38;98.87;103702.56;5091184;28;20028;-46
2023/01/24 01:00:20;;;;;;;28.42;18.48;;;;;;;1.42;97.91;103697.59;5090958;28;20028;-45
2023/01/24 01:02:47;;;;;;;29.20;18.98;;;;;;;1.37;98.33;103692.66;5094148;28;20448;-47
2023/01/24 01:05:13;;;;;;;28.35;19.17;;;;;;;1.40;97.61;103696.91;5093677;28;20028;-46
2023/01/24 01:07:38;;;;;;;27.90;18.77;;;;;;;1.40;97.87;103683.28;5095246;28;20349;-46
2023/01/24 01:10:04;;;;;;;28.73;19.25;;;;;;;1.40;98.26;103686.88;5087986;28;20062;-47
2023/01/24 01:12:29;;;;;;;28.65;19.40;;;;;;;1.43;98.28;103682.06;5094923;28;20051;-46
2023/01/24 01:14:55;;;;;;;26.90;18.15;;;;;;;1.40;98.14;103680.56;5094862;28;20476;-50
2023/01/24 01:17:21;;;;;;;28.88;18.88;;;;;;;1.40;98.53;103684.16;5094985;28;20055;-48
2023/01/24 01:19:50;;;;;;;28.27;19.52;;;;;;;1.40;99.20;103681.41;5094878;28;20035;-48
2023/01/24 01:22:16;;;;;;;27.33;18.42;;;;;;;1.40;99.10;103681.41;5094773;28;20479;-50
2023/01/24 01:24:41;;;;;;;28.58;19.60;;;;;;;1.41;98.84;103695.91;5094745;28;20056;-51
2023/01/24 01:27:06;;;;;;;29.23;19.60;;;;;;;1.40;98.76;103694.19;5094747;28;20028;-51
2023/01/24 01:29:33;;;;;;;27.92;19.02;;;;;;;1.40;98.58;103695.06;5093971;28;20028;-51
2023/01/24 01:31:58;;;;;;;29.00;19.20;;;;;;;1.42;98.65;103696.75;5093914;28;20129;-45
2023/01/24 01:34:23;;;;;;;27.83;18.88;;;;;;;1.39;99.18;103698.81;5094170;28;20507;-45
2023/01/24 01:36:49;;;;;;;28.98;20.30;;;;;;;1.36;98.68;103695.59;5092795;28;20024;-46
2023/01/24 01:39:14;;;;;;;28.42;19.85;;;;;;;1.40;99.00;103691.47;5094477;28;20429;-46
2023/01/24 01:41:39;;;;;;;29.92;20.20;;;;;;;1.35;98.80;103681.06;5094123;28;20430;-45
2023/01/24 01:44:40;;;;;;;28.35;20.98;;;;;;;1.45;98.82;103685.47;5094162;28;20031;-46
2023/01/24 01:47:23;;;;;;;31.13;21.60;;;;;;;1.42;99.04;103692.16;5094404;28;20028;-45
2023/01/24 01:50:03;;;;;;;29.13;19.80;;;;;;;1.40;99.65;103694.19;5094321;28;20506;-46
2023/01/24 01:52:35;;;;;;;30.20;20.90;;;;;;;1.38;100.00;103686.19;5075052;28;20028;-49
2023/01/24 01:55:08;;;;;;;29.70;20.05;;;;;;;1.40;100.00;103689.59;5093617;28;20116;-49
2023/01/24 01:57:35;;;;;;;;;;;;;;;1.44;100.00;103697.41;5093333;28;20044;-50
2023/01/24 02:00:12;;;;;;;30.60;20.33;;;;;;;1.40;100.00;103691.47;5092800;28;19916;-50
2023/01/24 02:02:40;;;;;;;31.40;21.10;;;;;;;1.39;100.00;103687.03;5092846;28;20103;-46
2023/01/24 02:05:07;;;;;;;29.25;20.33;;;;;;;1.36;100.00;103685.50;5092574;28;20032;-46
2023/01/24 02:07:46;;;;;;;29.15;20.88;;;;;;;1.36;100.00;103673.75;5092308;28;20032;-49
2023/01/24 02:10:12;;;;;;;31.40;21.35;;;;;;;1.40;100.00;103684.16;5085065;28;20347;-48
2023/01/24 02:12:40;;;;;;;30.77;21.17;;;;;;;1.39;100.00;103693.34;5092077;28;20028;-46
2023/01/24 02:17:55;;;;;;;29.90;21.15;;;;;;;1.39;100.00;103681.56;5092577;28;20066;-46
2023/01/24 02:20:45;;;;;;;29.98;20.65;;;;;;;1.40;100.00;103681.41;5092623;28;20427;-46
2023/01/24 02:23:43;;;;;;;29.77;21.00;;;;;;;1.38;100.00;103677.13;5092405;28;20055;-45
2023/01/24 02:26:09;;;;;;;30.85;21.40;;;;;;;1.33;100.00;103677.66;5092350;28;20403;-49
2023/01/24 02:28:35;;;;;;;30.35;21.70;;;;;;;1.34;100.00;103673.06;5091910;28;20173;-49
2023/01/24 02:31:03;;;;;;;30.65;21.20;;;;;;;1.34;100.00;103686.72;5092231;28;20036;-47
2023/01/24 02:33:28;;;;;;;30.80;21.27;;;;;;;1.30;100.00;103682.63;5092353;28;20039;-47
2023/01/24 02:36:12;;;;;;;31.13;20.73;;;;;;;1.30;100.00;103680.75;5092215;28;20032;-48
2023/01/24 02:38:39;;;;;;;31.50;20.80;;;;;;;1.29;100.00;103687.25;5090847;28;20032;-46
2023/01/24 02:41:07;;;;;;;33.50;22.98;;;;;;;1.25;100.00;103680.41;5092113;28;20031;-46
2023/01/24 02:43:41;;;;;;;31.92;21.42;;;;;;;1.27;100.00;103681.09;5092305;28;20464;-46
2023/01/24 02:46:06;;;;;;;30.88;21.50;;;;;;;1.28;100.00;103681.94;5092105;28;20031;-46
2023/01/24 02:48:32;;;;;;;30.55;21.77;;;;;;;1.27;100.00;103696.63;5092098;28;20357;-46
2023/01/24 02:53:41;;;;;;;30.50;22.25;;;;;;;1.29;100.00;103689.97;5092349;28;20089;-46
2023/01/24 02:58:52;;;;;;;32.38;22.52;;;;;;;1.28;100.00;103682.81;5092298;28;20055;-46
2023/01/24 03:01:19;;;;;;;32.83;21.95;;;;;;;1.26;100.00;103678.56;5092281;28;20237;-47
2023/01/24 03:03:45;;;;;;;33.00;23.23;;;;;;;1.26;100.00;103684.84;5092754;28;20074;-46
2023/01/24 03:06:12;;;;;;;30.88;21.77;;;;;;;1.22;100.00;103676.16;5092447;28;20146;-46
2023/01/24 03:08:38;;;;;;;32.63;23.65;;;;;;;1.19;100.00;103681.94;5092567;28;20038;-46
2023/01/24 03:11:05;;;;;;;32.63;23.10;;;;;;;1.16;100.00;103682.31;5085213;28;20447;-45
2023/01/24 03:35:23;;;;;;;32.97;22.83;;;;;;;1.18;100.00;103673.97;5092146;28;19915;-50
2023/01/24 03:40:33;;;;;;;;;;;;;;;1.16;100.00;103673.28;5092604;28;20415;-47
2023/01/24 03:42:59;;;;;;;32.22;22.90;;;;;;;1.11;100.00;103665.59;5092161;28;19912;-47
2023/01/24 03:45:28;;;;;;;32.65;23.30;;;;;;;1.11;100.00;103673.78;5090980;28;20031;-45
2023/01/24 03:47:55;;;;;;;32.72;22.83;;;;;;;1.07;100.00;103673.28;5090870;28;20041;-48
2023/01/24 03:53:13;;;;;;;32.60;23.80;;;;;;;1.07;100.00;103670.56;5092528;28;20090;-46
2023/01/24 03:55:39;;;;;;;33.40;23.83;;;;;;;1.05;100.00;103674.50;5091564;28;20064;-48
2023/01/24 03:58:06;;;;;;;30.65;21.52;;;;;;;1.06;100.00;103670.75;5092549;28;20031;-46
2023/01/24 04:00:32;;;;;;;33.10;23.42;;;;;;;1.04;100.00;103675.50;5092374;28;20024;-47
2023/01/24 04:02:58;;;;;;;32.58;23.20;;;;;;;1.04;100.00;103675.50;5092549;28;20099;-47
2023/01/24 04:05:23;;;;;;;29.65;21.80;;;;;;;0.99;100.00;103676.03;5091984;28;20165;-47
2023/01/24 04:07:49;;;;;;;31.67;22.40;;;;;;;0.96;100.00;103675.53;5088359;28;20428;-49
2023/01/24 04:10:15;;;;;;;31.42;21.33;;;;;;;0.96;100.00;103680.97;5092450;28;20028;-49
2023/01/24 04:12:41;;;;;;;31.02;22.67;;;;;;;0.92;100.00;103669.56;5091658;28;20023;-46
2023/01/24 04:15:07;;;;;;;32.42;22.98;;;;;;;0.92;100.00;103667.69;5092251;28;20024;-45
2023/01/24 04:17:33;;;;;;;33.03;23.30;;;;;;;0.90;100.00;103669.72;5092267;28;20482;-47
2023/01/24 04:19:58;;;;;;;32.10;23.45;;;;;;;0.95;100.00;103673.81;5092024;28;20114;-46
2023/01/24 04:22:24;;;;;;;30.35;22.08;;;;;;;0.93;100.00;103674.84;5092125;28;20412;-48
2023/01/24 04:24:49;;;;;;;33.30;22.58;;;;;;;0.94;100.00;103672.97;5091849;28;20604;-48
2023/01/24 04:27:14;;;;;;;32.25;23.35;;;;;;;0.93;100.00;103680.28;5091975;28;20036;-46
2023/01/24 04:29:40;;;;;;;31.45;21.80;;;;;;;0.95;100.00;103673.81;5092014;28;20035;-48
2023/01/24 04:32:06;;;;;;;30.90;22.83;;;;;;;0.95;100.00;103682.81;5091784;28;20035;-47
2023/01/24 04:34:31;;;;;;;30.70;22.25;;;;;;;0.96;100.00;103675.53;5091746;28;20042;-47
2023/01/24 04:36:56;;;;;;;31.92;22.40;;;;;;;0.92;100.00;103675.84;5091414;28;20024;-49
2023/01/24 04:39:22;;;;;;;32.40;22.60;;;;;;;0.93;100.00;103682.16;5091562;28;20024;-45
2023/01/24 04:41:47;;;;;;;31.77;21.85;;;;;;;0.91;100.00;103685.06;5091395;28;20056;-47
2023/01/24 04:44:12;;;;;;;33.22;23.60;;;;;;;0.90;100.00;103685.22;5091279;28;20030;-48
2023/01/24 04:46:37;;;;;;;30.27;21.35;;;;;;;0.88;100.00;103685.41;5091256;28;20384;-49
2023/01/24 04:49:03;;;;;;;30.45;21.42;;;;;;;0.85;100.00;103685.75;5091397;28;20032;-46
2023/01/24 04:51:28;;;;;;;32.30;22.02;;;;;;;0.85;100.00;103690.34;5091364;28;20115;-44
2023/01/24 04:53:53;;;;;;;30.90;22.70;;;;;;;0.83;100.00;103684.22;5091334;28;20111;-48
2023/01/24 04:56:19;;;;;;;31.20;21.77;;;;;;;0.85;100.00;103688.47;5091226;28;20355;-46
2023/01/24 04:58:44;;;;;;;30.60;21.25;;;;;;;0.85;100.00;103691.19;5090999;28;20081;-45
2023/01/24 05:01:09;;;;;;;31.50;22.10;;;;;;;0.83;100.00;103682.34;5090447;28;20063;-44
2023/01/24 05:03:34;;;;;;;31.02;21.52;;;;;;;0.84;100.00;103684.03;5090803;28;20027;-46
2023/01/24 05:06:00;;;;;;;31.40;21.95;;;;;;;0.82;100.00;103686.06;5091278;28;20098;-46
2023/01/24 05:08:26;;;;;;;31.25;22.33;;;;;;;0.83;100.00;103681.50;5089487;28;20490;-48
2023/01/24 05:10:51;;;;;;;30.92;22.40;;;;;;;0.81;100.00;103683.53;5087370;28;20028;-49
2023/01/24 05:13:17;;;;;;;32.25;22.35;;;;;;;0.82;100.00;103682.50;5091280;28;20075;-45
2023/01/24 05:15:47;;;;;;;32.17;23.23;;;;;;;0.80;100.00;103681.81;5090790;28;20064;-47
2023/01/24 05:18:12;;;;;;;31.58;22.58;;;;;;;0.82;100.00;103693.41;5090685;28;20085;-49
2023/01/24 05:20:37;;;;;;;30.50;22.10;;;;;;;0.85;100.00;103696.66;5090656;28;20560;-46
2023/01/24 05:23:03;;;;;;;31.95;22.33;;;;;;;0.82;100.00;103696.97;5090634;28;20028;-47
2023/01/24 05:25:28;;;;;;;30.85;21.98;;;;;;;0.84;100.00;103700.38;5090747;28;20043;-45
2023/01/24 05:27:53;;;;;;;30.48;21.50;;;;;;;0.86;100.00;103700.22;5090712;28;20051;-46
2023/01/24 05:30:19;;;;;;;31.17;22.15;;;;;;;0.86;100.00;103700.22;5089734;28;20123;-44
2023/01/24 05:32:44;;;;;;;31.33;22.73;;;;;;;0.82;100.00;103701.59;5089037;28;20035;-49
2023/01/24 05:35:09;;;;;;;31.25;23.55;;;;;;;0.79;100.00;103697.34;5089059;28;20031;-47
2023/01/24 05:37:39;;;;;;;31.45;22.25;;;;;;;0.77;100.00;103692.03;5089396;28;20398;-47
2023/01/24 05:40:05;;;;;;;29.95;22.70;;;;;;;0.80;100.00;103700.91;5088414;28;20111;-47
2023/01/24 05:42:31;;;;;;;31.55;23.23;;;;;;;0.76;100.00;103698.50;5089789;28;20035;-47
2023/01/24 05:44:56;;;;;;;31.45;22.65;;;;;;;0.75;100.00;103698.69;5089976;28;20023;-47
2023/01/24 05:47:22;;;;;;;32.80;23.63;;;;;;;0.78;100.00;103701.09;5091100;28;20040;-47
2023/01/24 05:49:47;;;;;;;30.95;22.55;;;;;;;0.75;100.00;103699.56;5094129;28;20032;-49
2023/01/24 05:52:18;;;;;;;30.10;21.92;;;;;;;0.74;100.00;103711.47;5094207;28;20027;-46
2023/01/24 05:54:43;;;;;;;31.58;23.08;;;;;;;0.76;100.00;103708.56;5093875;28;20048;-50
2023/01/24 05:57:09;;;;;;;31.88;23.15;;;;;;;0.74;100.00;103711.47;5092408;28;20437;-45
2023/01/24 05:59:34;;;;;;;32.10;23.30;;;;;;;0.77;100.00;103721.19;5093869;28;20536;-46
2023/01/24 06:01:59;;;;;;;31.30;22.40;;;;;;;0.78;100.00;103725.59;5093820;28;20403;-45
2023/01/24 06:04:25;;;;;;;31.25;22.42;;;;;;;0.77;100.00;103722.00;5093862;28;20031;-49
2023/01/24 06:06:50;;;;;;;30.73;22.25;;;;;;;0.76;100.00;103723.03;5093696;28;20039;-46
2023/01/24 06:09:15;;;;;;;33.38;22.90;;;;;;;0.76;100.00;103714.84;5092735;28;20032;-49
2023/01/24 06:11:40;;;;;;;34.30;23.80;;;;;;;0.75;100.00;103724.06;5085812;28;20111;-45
2023/01/24 06:14:06;;;;;;;33.58;23.77;;;;;;;0.73;100.00;103719.78;5093765;28;20036;-47
2023/01/24 06:16:31;;;;;;;34.17;25.98;;;;;;;0.71;100.00;103724.59;5093852;28;20497;-48
2023/01/24 06:18:57;;;;;;;35.65;25.20;;;;;;;0.66;100.00;103724.22;5093614;28;20107;-48
2023/01/24 06:21:31;;;;;;;31.92;23.13;;;;;;;0.67;100.00;103729.50;5092425;28;20044;-50
2023/01/24 06:23:56;;;;;;;31.60;23.60;;;;;;;0.63;100.00;103728.16;5092133;28;20099;-45
2023/01/24 06:26:22;;;;;;;33.50;23.25;;;;;;;0.66;100.00;103727.81;5092273;28;20452;-51
2023/01/24 06:28:48;;;;;;;32.03;23.13;;;;;;;0.66;100.00;103726.94;5092614;28;20464;-50
2023/01/24 06:31:41;;;;;;;31.77;23.10;;;;;;;0.66;100.00;103733.25;5091204;28;20039;-47
2023/01/24 06:34:24;;;;;;;33.50;23.60;;;;;;;0.65;100.00;103719.78;5090820;28;20456;-50
2023/01/24 06:37:03;;;;;;;31.98;22.85;;;;;;;0.70;100.00;103733.78;5090479;28;20071;-46
2023/01/24 06:39:29;;;;;;;33.10;23.08;;;;;;;0.67;100.00;103731.38;5090258;28;20028;-46
2023/01/24 06:41:54;;;;;;;32.15;23.88;;;;;;;0.71;100.00;103740.94;5090647;28;20466;-45
2023/01/24 06:44:20;;;;;;;34.75;24.55;;;;;;;0.70;100.00;103744.69;5091147;28;20020;-51
2023/01/24 06:46:45;;;;;;;34.67;25.08;;;;;;;0.67;100.00;103745.00;5090293;28;20031;-49
2023/01/24 06:49:11;;;;;;;33.63;24.58;;;;;;;0.69;100.00;103745.69;5091409;28;20028;-49
2023/01/24 06:51:37;;;;;;;32.72;22.88;;;;;;;0.67;100.00;103743.13;5090994;28;20020;-46
2023/01/24 06:54:03;;;;;;;32.90;23.58;;;;;;;0.69;100.00;103740.25;5091013;28;20101;-47
2023/01/24 06:56:28;;;;;;;32.63;23.38;;;;;;;0.70;100.00;103740.06;5090881;28;20090;-49
2023/01/24 06:58:53;;;;;;;33.40;23.98;;;;;;;0.69;100.00;103745.69;5089510;28;20455;-50
2023/01/24 07:01:19;;;;;;;32.13;24.30;;;;;;;0.64;100.00;103735.31;5081261;28;20407;-49
2023/01/24 07:03:44;;;;;;;33.05;23.40;;;;;;;0.61;100.00;103744.63;5090472;28;20483;-45
2023/01/24 07:06:09;;;;;;;35.25;24.15;;;;;;;0.60;100.00;103740.25;5082140;28;20125;-44
2023/01/24 07:08:35;;;;;;;32.85;24.15;;;;;;;0.62;100.00;103740.06;5090598;28;20020;-45
2023/01/24 07:11:00;;;;;;;33.08;24.45;;;;;;;0.62;100.00;103745.50;5090713;28;20028;-45
2023/01/24 07:13:25;;;;;;;33.58;24.27;;;;;;;0.65;100.00;103749.75;5090644;28;20511;-47
2023/01/24 07:15:51;;;;;;;33.97;24.60;;;;;;;0.65;100.00;103753.34;5090704;28;20032;-44
2023/01/24 07:18:17;;;;;;;33.88;25.33;;;;;;;0.64;100.00;103767.13;5090467;28;20459;-45
2023/01/24 07:20:43;;;;;;;34.38;25.52;;;;;;;0.67;100.00;103772.25;5089003;28;20024;-49
2023/01/24 07:23:23;;;;;;;34.97;25.70;;;;;;;0.66;100.00;103770.53;5088899;28;20042;-49
2023/01/24 07:25:51;;;;;;;34.92;25.17;;;;;;;0.63;100.00;103774.47;5090082;28;20200;-46
2023/01/24 07:28:17;;;;;;;34.67;25.80;;;;;;;0.60;100.00;103775.66;5090103;28;20122;-47
2023/01/24 07:30:44;;;;;;;35.10;25.45;;;;;;;0.62;100.00;103787.22;5090736;28;20072;-48
2023/01/24 07:33:10;;;;;;;32.85;24.98;;;;;;;0.60;100.00;103782.97;5090715;28;20051;-45
2023/01/24 07:35:36;;;;;;;38.17;26.30;;;;;;;0.57;100.00;103789.59;5091740;28;20062;-46
2023/01/24 07:38:01;;;;;;;34.58;25.45;;;;;;;0.52;100.00;103786.50;5091417;28;20432;-44
2023/01/24 07:40:26;;;;;;;37.08;26.05;;;;;;;0.49;100.00;103781.41;5091657;28;20024;-46
2023/01/24 07:42:52;;;;;;;34.75;24.88;;;;;;;0.52;100.00;103791.94;5091593;28;20043;-48
2023/01/24 07:45:17;;;;;;;34.88;25.65;;;;;;;0.46;100.00;103789.91;5091064;28;20024;-47
2023/01/24 07:47:42;;;;;;;35.53;25.35;;;;;;;0.47;100.00;103788.88;5088925;28;20055;-46
2023/01/24 07:50:08;;;;;;;31.63;22.60;;;;;;;0.44;100.00;103792.81;5088537;28;20477;-47
2023/01/24 07:52:33;;;;;;;35.85;25.50;;;;;;;0.42;100.00;103799.44;5088470;28;20031;-47
2023/01/24 07:54:59;;;;;;;34.78;23.77;;;;;;;0.49;100.00;103792.31;5087857;28;20460;-48
2023/01/24 07:57:24;;;;;;;34.33;23.38;;;;;;;0.49;100.00;103788.72;5088035;28;20028;-48
2023/01/24 07:59:49;;;;;;;32.72;23.08;;;;;;;0.51;100.00;103798.44;5088310;28;20020;-48
2023/01/24 08:02:15;;;;;;;36.08;26.90;;;;;;;0.47;100.00;103803.34;5089882;28;20051;-46
2023/01/24 08:04:40;;;;;;;35.35;24.13;;;;;;;0.48;100.00;103809.66;5091607;28;20447;-49
2023/01/24 08:07:17;;;;;;;32.83;23.05;;;;;;;0.56;100.00;103797.94;5091691;28;20487;-45
2023/01/24 08:09:44;;;;;;;34.90;23.98;;;;;;;0.56;100.00;103806.97;5091350;28;20042;-51
2023/01/24 08:12:09;;;;;;;35.17;24.17;;;;;;;0.54;100.00;103802.69;5091393;28;20724;-49
2023/01/24 08:14:35;;;;;;;32.55;23.20;;;;;;;0.57;100.00;103808.66;5091411;28;20028;-46
2023/01/24 08:17:00;;;;;;;34.80;23.73;;;;;;;0.61;100.00;103807.31;5091304;28;20032;-48
2023/01/24 08:19:25;;;;;;;34.13;23.38;;;;;;;0.64;100.00;103805.28;5091281;28;20055;-50
2023/01/24 08:21:51;;;;;;;33.78;23.33;;;;;;;0.64;100.00;103799.81;5091316;28;20127;-45
2023/01/24 08:24:16;;;;;;;33.67;22.90;;;;;;;0.66;100.00;103806.84;5091033;28;20028;-47
2023/01/24 08:26:41;;;;;;;33.85;23.88;;;;;;;0.60;100.00;103796.59;5091276;28;20099;-47
2023/01/24 08:29:07;;;;;;;34.92;23.88;;;;;;;0.65;100.00;103810.56;5091176;28;20439;-48
2023/01/24 08:31:32;;;;;;;34.83;23.70;;;;;;;0.62;100.00;103809.00;5091175;28;20024;-46
2023/01/24 08:33:57;;;;;;;35.47;24.27;;;;;;;0.64;100.00;103810.72;5091119;28;20031;-50
2023/01/24 08:36:23;;;;;;;34.30;23.20;;;;;;;0.65;100.00;103815.16;5089668;28;20024;-52
2023/01/24 08:38:49;;;;;;;35.53;23.83;;;;;;;0.60;100.00;103819.25;5089597;28;20016;-51
2023/01/24 08:41:14;;;;;;;37.08;23.50;;;;;;;0.60;100.00;103821.97;5089503;28;20077;-46
2023/01/24 08:43:39;;;;;;;34.38;23.20;;;;;;;0.59;100.00;103822.13;5086354;28;20047;-46
2023/01/24 08:46:05;;;;;;;33.40;23.05;;;;;;;0.58;100.00;103829.44;5088931;28;20475;-47
2023/01/24 08:48:30;;;;;;;35.28;23.05;;;;;;;0.63;100.00;103831.69;5089190;28;20089;-49
2023/01/24 08:50:56;;;;;;;35.38;23.25;;;;;;;0.55;100.00;103823.50;5088942;28;20024;-47
2023/01/24 08:53:21;;;;;;;34.60;23.00;;;;;;;0.57;100.00;103835.03;5087327;28;20039;-49
2023/01/24 08:55:50;;;;;;;35.15;24.15;;;;;;;0.55;100.00;103831.66;5088697;28;20048;-47
2023/01/24 08:58:16;;;;;;;33.55;23.10;;;;;;;0.54;100.00;103833.50;5088625;28;20035;-50
2023/01/24 09:00:41;;;;;;;35.35;23.48;;;;;;;0.55;100.00;103835.22;5087054;28;20399;-47
2023/01/24 09:03:09;;;;;;;34.85;22.98;;;;;;;0.52;100.00;103834.69;5086917;28;20024;-48
2023/01/24 09:05:34;;;;;;;32.13;22.27;;;;;;;0.50;100.00;103834.00;5088352;28;20032;-49
2023/01/24 09:08:00;;;;;;;32.90;21.67;;;;;;;0.54;100.00;103830.78;5088340;28;20089;-50
2023/01/24 09:10:26;;;;;;;34.85;22.77;;;;;;;0.60;100.00;103841.03;5088686;28;20499;-48
2023/01/24 09:12:51;;;;;;;34.35;22.67;;;;;;;0.67;100.00;103840.38;5088685;28;20410;-47
2023/01/24 09:15:16;;;;;;;34.92;23.85;;;;;;;0.66;100.00;103838.66;5088395;28;20038;-49
2023/01/24 09:17:42;;;;;;;35.35;23.58;;;;;;;0.72;100.00;103836.13;5088376;28;20585;-47
2023/01/24 09:20:08;;;;;;;32.45;21.92;;;;;;;0.67;100.00;103838.50;5088547;28;20035;-49
2023/01/24 09:22:33;;;;;;;35.78;23.98;;;;;;;0.69;100.00;103849.25;5089518;28;20090;-46
2023/01/24 09:24:58;;;;;;;34.85;22.35;;;;;;;0.75;100.00;103845.84;5090863;28;20047;-49
2023/01/24 09:27:24;;;;;;;32.22;22.10;;;;;;;0.78;100.00;103842.78;5092164;28;20032;-49
2023/01/24 09:29:49;;;;;;;34.50;22.95;;;;;;;0.78;100.00;103851.81;5092254;28;20039;-49
2023/01/24 09:32:16;;;;;;;32.40;21.35;;;;;;;0.78;100.00;103848.25;5092261;28;20032;-49
2023/01/24 09:34:46;;;;;;;31.45;20.88;;;;;;;0.77;100.00;103852.00;5092120;28;20133;-47
2023/01/24 09:37:16;;;;;;;32.58;21.35;;;;;;;0.80;100.00;103848.94;5092382;28;20431;-47
2023/01/24 09:39:41;;;;;;;32.67;21.98;;;;;;;0.80;100.00;103846.22;5091935;28;20395;-50
2023/01/24 09:42:32;;;;;;;32.13;20.63;;;;;;;0.84;100.00;103846.72;5090132;28;20024;-49
2023/01/24 09:45:06;;;;;;;34.28;21.45;;;;;;;0.82;100.00;103848.78;5076828;28;20040;-50
2023/01/24 09:47:45;;;;;;;31.92;21.60;;;;;;;0.83;100.00;103851.31;5091590;28;20024;-47
2023/01/24 09:50:36;;;;;;;34.45;21.77;;;;;;;0.83;100.00;103854.03;5091878;28;20028;-49
2023/01/24 09:53:01;;;;;;;33.38;21.83;;;;;;;0.85;100.00;103853.91;5091365;28;20044;-45
2023/01/24 09:55:41;;;;;;;31.55;20.80;;;;;;;0.91;100.00;103853.22;5091868;28;20127;-48
2023/01/24 09:58:18;;;;;;;30.08;20.15;;;;;;;0.91;100.00;103870.41;5090296;28;20066;-46
2023/01/24 10:00:44;;;;;;;31.60;20.65;;;;;;;0.87;100.00;103869.06;5091810;28;20517;-49
2023/01/24 10:03:28;;;;;;;31.88;20.33;;;;;;;0.87;100.00;103870.91;5089978;28;20024;-49
2023/01/24 10:05:56;;;;;;;32.00;22.60;;;;;;;0.76;100.00;103864.75;5091447;28;20031;-47
2023/01/24 10:08:50;;;;;;;33.22;22.75;;;;;;;0.77;100.00;103871.91;5090248;28;20112;-48
2023/01/24 10:11:41;;;;;;;31.58;20.58;;;;;;;0.73;100.00;103866.94;5091773;28;20035;-46
2023/01/24 10:14:22;;;;;;;31.63;19.90;;;;;;;0.68;100.00;103864.72;5090658;28;20493;-52
2023/01/24 10:17:09;;;;;;;30.25;19.80;;;;;;;0.75;100.00;103868.53;5091256;28;20166;-47
2023/01/24 10:20:07;;;;;;;31.02;19.48;;;;;;;0.78;100.00;103865.44;5091415;28;20039;-50
2023/01/24 10:22:55;;;;;;;31.13;21.10;;;;;;;0.84;100.00;103861.19;5091675;28;20062;-48
2023/01/24 10:25:33;;;;;;;29.27;20.02;;;;;;;0.88;100.00;103859.88;5091306;28;20028;-50
2023/01/24 10:28:01;;;;;;;29.42;19.85;;;;;;;0.91;100.00;103867.69;5091144;28;20032;-46
2023/01/24 10:30:52;;;;;;;29.80;19.33;;;;;;;0.96;100.00;103864.47;5091349;28;20052;-46
2023/01/24 10:33:19;;;;;;;30.55;19.95;;;;;;;0.99;100.00;103863.28;5081831;28;20038;-49
2023/01/24 10:36:01;;;;;;;31.17;19.75;;;;;;;1.05;100.00;103866.19;5080717;28;20039;-47
2023/01/24 10:38:27;;;;;;;30.38;19.95;;;;;;;1.05;100.00;103862.63;5080837;28;20028;-47
2023/01/24 10:41:14;;;;;;;30.77;20.33;;;;;;;1.08;100.00;103859.56;5090599;28;20034;-46
2023/01/24 10:43:42;;;;;;;31.88;21.42;;;;;;;1.08;100.00;103860.41;5084495;28;20044;-48
2023/01/24 10:46:22;;;;;;;28.98;18.73;;;;;;;1.12;100.00;103862.81;5080139;28;20059;-49
2023/01/24 10:48:53;;;;;;;28.23;20.02;;;;;;;1.07;99.61;103866.03;5080136;28;20032;-46
2023/01/24 10:51:22;;;;;;;29.35;20.50;;;;;;;1.01;99.26;103859.38;5070929;28;20066;-47
2023/01/24 10:53:48;;;;;;;29.98;19.63;;;;;;;1.04;99.93;103859.03;5070759;28;20113;-46
2023/01/24 10:56:16;;;;;;;31.17;20.33;;;;;;;1.07;99.22;103858.69;5070364;28;20064;-47
2023/01/24 10:59:00;;;;;;;31.15;20.73;;;;;;;1.08;99.12;103860.41;5070439;28;20525;-48
2023/01/24 11:01:39;;;;;;;;;;;;;;;1.15;99.97;103852.41;5069617;28;20028;-47
2023/01/24 11:04:27;;;;;;;29.52;18.13;;;;;;;1.15;99.26;103848.81;5070527;28;20395;-46
2023/01/24 11:06:53;;;;;;;31.40;19.73;;;;;;;1.13;99.72;103849.00;5070211;28;20498;-50
2023/01/24 11:09:23;;;;;;;30.70;20.60;;;;;;;1.19;98.99;103855.66;5070538;28;20106;-47
2023/01/24 11:11:54;;;;;;;31.08;19.25;;;;;;;1.20;99.21;103841.00;5083401;28;20040;-49
2023/01/24 11:14:23;;;;;;;31.45;19.90;;;;;;;1.25;99.07;103846.78;5089259;28;20039;-46
2023/01/24 11:16:55;;;;;;;32.35;21.02;;;;;;;1.29;98.53;103837.25;5090407;28;20089;-46
2023/01/24 11:19:35;;;;;;;28.35;18.67;;;;;;;1.38;99.38;103836.22;5090402;28;20116;-49
2023/01/24 11:22:24;;;;;;;29.30;19.23;;;;;;;1.46;99.63;103835.38;5090263;28;20032;-47
2023/01/24 11:24:50;;;;;;;29.58;19.73;;;;;;;1.48;99.15;103843.38;5090359;28;20016;-50
2023/01/24 11:27:20;;;;;;;29.00;19.90;;;;;;;1.41;99.25;103832.31;5090497;28;20081;-46
2023/01/24 11:30:28;;;;;;;30.00;19.65;;;;;;;1.47;98.40;103826.16;5090328;28;20036;-49
2023/01/24 11:33:16;;;;;;;29.70;19.13;;;;;;;1.51;99.27;103830.25;5089526;28;20130;-50
2023/01/24 11:35:53;;;;;;;28.30;18.73;;;;;;;1.43;97.50;103824.81;5091136;28;20036;-50
2023/01/24 11:38:33;;;;;;;30.63;19.70;;;;;;;1.39;98.71;103821.56;5089680;28;20389;-47
2023/01/24 11:41:53;;;;;;;26.25;18.30;;;;;;;1.35;97.29;103825.66;5090749;28;20032;-46
2023/01/24 11:44:45;;;;;;;29.83;20.15;;;;;;;1.30;97.56;103825.31;5057104;28;20732;-49
2023/01/24 11:47:18;;;;;;;28.77;17.90;;;;;;;1.34;97.51;103817.66;5088066;28;20097;-46
2023/01/24 11:50:02;;;;;;;30.98;19.30;;;;;;;1.35;97.20;103813.91;5089683;28;20054;-47
2023/01/24 11:52:58;;;;;;;26.92;17.98;;;;;;;1.34;96.80;103821.22;5090066;28;20039;-49
2023/01/24 11:55:51;;;;;;;28.67;18.38;;;;;;;1.34;96.71;103815.75;5089794;28;20410;-50
2023/01/24 11:58:22;;;;;;;29.20;18.92;;;;;;;1.35;97.12;103814.75;5089784;28;20020;-46